sensor_id;sensor_type;location;lat;lon;timestamp;P1;durP1;ratioP1;P2;durP2;ratioP2
32746;SDS011;19118;50.860;13.662;2023-11-22T00:00:10;20.23;;;12.90;;
32746;SDS011;19118;50.860;13.662;2023-11-22T00:05:12;20.60;;;12.32;;
32746;SDS011;19118;50.860;13.662;2023-11-22T00:10:13;23.08;;;13.85;;
32746;SDS011;19118;50.860;13.662;2023-11-22T00:15:13;21.75;;;12.48;;
32746;SDS011;19118;50.860;13.662;2023-11-22T00:20:18;22.48;;;13.40;;
32746;SDS011;19118;50.860;13.662;2023-11-22T00:25:18;24.58;;;13.43;;
32746;SDS011;19118;50.860;13.662;2023-11-22T00:30:19;26.90;;;14.55;;
32746;SDS011;19118;50.860;13.662;2023-11-22T00:35:20;25.83;;;14.27;;
32746;SDS011;19118;50.860;13.662;2023-11-22T00:40:20;30.70;;;16.70;;
32746;SDS011;19118;50.860;13.662;2023-11-22T00:45:21;30.95;;;17.40;;
32746;SDS011;19118;50.860;13.662;2023-11-22T00:50:22;79.38;;;21.75;;
32746;SDS011;19118;50.860;13.662;2023-11-22T00:55:22;281.92;;;33.30;;
32746;SDS011;19118;50.860;13.662;2023-11-22T01:00:23;135.93;;;27.42;;
32746;SDS011;19118;50.860;13.662;2023-11-22T01:05:24;384.05;;;38.65;;
32746;SDS011;19118;50.860;13.662;2023-11-22T01:10:25;118.18;;;25.98;;
32746;SDS011;19118;50.860;13.662;2023-11-22T01:15:26;51.42;;;22.52;;
32746;SDS011;19118;50.860;13.662;2023-11-22T01:20:26;54.33;;;24.13;;
32746;SDS011;19118;50.860;13.662;2023-11-22T01:25:27;102.47;;;28.08;;
32746;SDS011;19118;50.860;13.662;2023-11-22T01:30:28;76.63;;;25.85;;
32746;SDS011;19118;50.860;13.662;2023-11-22T01:35:29;62.63;;;27.08;;
32746;SDS011;19118;50.860;13.662;2023-11-22T01:40:29;78.18;;;30.65;;
32746;SDS011;19118;50.860;13.662;2023-11-22T01:45:30;77.78;;;31.20;;
32746;SDS011;19118;50.860;13.662;2023-11-22T01:50:30;78.68;;;31.75;;
32746;SDS011;19118;50.860;13.662;2023-11-22T01:55:31;59.55;;;28.98;;
32746;SDS011;19118;50.860;13.662;2023-11-22T02:00:35;61.78;;;28.48;;
32746;SDS011;19118;50.860;13.662;2023-11-22T02:10:42;80.57;;;30.52;;
32746;SDS011;19118;50.860;13.662;2023-11-22T02:15:44;72.55;;;32.33;;
32746;SDS011;19118;50.860;13.662;2023-11-22T02:20:46;70.75;;;30.00;;
32746;SDS011;19118;50.860;13.662;2023-11-22T02:25:47;72.03;;;29.85;;
32746;SDS011;19118;50.860;13.662;2023-11-22T02:30:47;66.47;;;29.73;;
32746;SDS011;19118;50.860;13.662;2023-11-22T02:35:47;100.00;;;29.35;;
32746;SDS011;19118;50.860;13.662;2023-11-22T02:40:48;89.90;;;29.20;;
32746;SDS011;19118;50.860;13.662;2023-11-22T02:45:50;61.55;;;28.35;;
32746;SDS011;19118;50.860;13.662;2023-11-22T02:50:50;65.95;;;28.33;;
32746;SDS011;19118;50.860;13.662;2023-11-22T02:55:51;53.05;;;26.30;;
32746;SDS011;19118;50.860;13.662;2023-11-22T03:00:51;50.75;;;24.42;;
32746;SDS011;19118;50.860;13.662;2023-11-22T03:05:54;48.65;;;23.92;;
32746;SDS011;19118;50.860;13.662;2023-11-22T03:10:55;63.03;;;26.95;;
32746;SDS011;19118;50.860;13.662;2023-11-22T03:16:19;67.85;;;27.40;;
32746;SDS011;19118;50.860;13.662;2023-11-22T03:21:20;53.95;;;24.98;;
32746;SDS011;19118;50.860;13.662;2023-11-22T03:26:20;61.13;;;25.77;;
32746;SDS011;19118;50.860;13.662;2023-11-22T03:31:20;64.70;;;27.65;;
32746;SDS011;19118;50.860;13.662;2023-11-22T03:36:21;59.25;;;26.13;;
32746;SDS011;19118;50.860;13.662;2023-11-22T03:41:23;58.47;;;28.02;;
32746;SDS011;19118;50.860;13.662;2023-11-22T03:46:23;66.72;;;28.95;;
32746;SDS011;19118;50.860;13.662;2023-11-22T03:51:23;105.50;;;30.05;;
32746;SDS011;19118;50.860;13.662;2023-11-22T03:56:24;70.93;;;31.52;;
32746;SDS011;19118;50.860;13.662;2023-11-22T04:01:24;107.93;;;35.67;;
32746;SDS011;19118;50.860;13.662;2023-11-22T04:06:25;144.32;;;35.25;;
32746;SDS011;19118;50.860;13.662;2023-11-22T04:11:25;81.68;;;34.28;;
32746;SDS011;19118;50.860;13.662;2023-11-22T04:16:28;142.80;;;33.33;;
32746;SDS011;19118;50.860;13.662;2023-11-22T04:21:28;56.92;;;27.50;;
32746;SDS011;19118;50.860;13.662;2023-11-22T04:26:29;67.93;;;28.90;;
32746;SDS011;19118;50.860;13.662;2023-11-22T04:31:29;68.68;;;29.95;;
32746;SDS011;19118;50.860;13.662;2023-11-22T04:36:30;76.05;;;28.55;;
32746;SDS011;19118;50.860;13.662;2023-11-22T04:41:31;85.65;;;30.35;;
32746;SDS011;19118;50.860;13.662;2023-11-22T04:46:31;102.47;;;32.05;;
32746;SDS011;19118;50.860;13.662;2023-11-22T04:51:32;69.32;;;30.38;;
32746;SDS011;19118;50.860;13.662;2023-11-22T04:56:32;115.50;;;33.85;;
32746;SDS011;19118;50.860;13.662;2023-11-22T05:01:33;134.75;;;31.52;;
32746;SDS011;19118;50.860;13.662;2023-11-22T05:06:33;127.15;;;30.73;;
32746;SDS011;19118;50.860;13.662;2023-11-22T05:11:33;110.15;;;29.33;;
32746;SDS011;19118;50.860;13.662;2023-11-22T05:16:34;93.22;;;30.45;;
32746;SDS011;19118;50.860;13.662;2023-11-22T05:21:34;64.70;;;28.55;;
32746;SDS011;19118;50.860;13.662;2023-11-22T05:26:34;57.63;;;28.30;;
32746;SDS011;19118;50.860;13.662;2023-11-22T05:31:35;77.60;;;29.27;;
32746;SDS011;19118;50.860;13.662;2023-11-22T05:36:37;62.80;;;28.15;;
32746;SDS011;19118;50.860;13.662;2023-11-22T05:41:38;79.03;;;31.27;;
32746;SDS011;19118;50.860;13.662;2023-11-22T05:46:38;55.75;;;28.00;;
32746;SDS011;19118;50.860;13.662;2023-11-22T05:51:38;58.15;;;27.95;;
32746;SDS011;19118;50.860;13.662;2023-11-22T05:56:39;46.63;;;25.20;;
32746;SDS011;19118;50.860;13.662;2023-11-22T06:01:39;54.55;;;26.63;;
32746;SDS011;19118;50.860;13.662;2023-11-22T06:06:39;57.40;;;26.60;;
32746;SDS011;19118;50.860;13.662;2023-11-22T06:11:40;56.35;;;26.40;;
32746;SDS011;19118;50.860;13.662;2023-11-22T06:16:40;58.47;;;25.80;;
32746;SDS011;19118;50.860;13.662;2023-11-22T06:21:40;71.30;;;28.25;;
32746;SDS011;19118;50.860;13.662;2023-11-22T06:26:42;107.22;;;30.77;;
32746;SDS011;19118;50.860;13.662;2023-11-22T06:31:43;85.15;;;30.20;;
32746;SDS011;19118;50.860;13.662;2023-11-22T06:36:43;88.55;;;31.55;;
32746;SDS011;19118;50.860;13.662;2023-11-22T06:41:44;76.05;;;31.83;;
32746;SDS011;19118;50.860;13.662;2023-11-22T06:46:44;70.57;;;30.08;;
32746;SDS011;19118;50.860;13.662;2023-11-22T06:51:44;75.03;;;30.17;;
32746;SDS011;19118;50.860;13.662;2023-11-22T06:56:45;61.65;;;28.83;;
32746;SDS011;19118;50.860;13.662;2023-11-22T07:01:45;96.97;;;32.47;;
32746;SDS011;19118;50.860;13.662;2023-11-22T07:06:46;88.97;;;31.65;;
32746;SDS011;19118;50.860;13.662;2023-11-22T07:11:46;80.53;;;31.85;;
32746;SDS011;19118;50.860;13.662;2023-11-22T07:16:46;67.45;;;30.60;;
32746;SDS011;19118;50.860;13.662;2023-11-22T07:21:47;76.38;;;32.47;;
32746;SDS011;19118;50.860;13.662;2023-11-22T07:26:48;69.95;;;30.90;;
32746;SDS011;19118;50.860;13.662;2023-11-22T07:31:48;71.20;;;32.40;;
32746;SDS011;19118;50.860;13.662;2023-11-22T07:36:49;65.40;;;31.92;;
32746;SDS011;19118;50.860;13.662;2023-11-22T07:41:52;72.65;;;30.30;;
32746;SDS011;19118;50.860;13.662;2023-11-22T07:46:52;75.78;;;31.20;;
32746;SDS011;19118;50.860;13.662;2023-11-22T07:51:53;74.28;;;30.67;;
32746;SDS011;19118;50.860;13.662;2023-11-22T07:56:54;53.58;;;27.27;;
32746;SDS011;19118;50.860;13.662;2023-11-22T08:01:54;63.60;;;29.45;;
32746;SDS011;19118;50.860;13.662;2023-11-22T08:06:55;59.60;;;26.75;;
32746;SDS011;19118;50.860;13.662;2023-11-22T08:11:56;58.60;;;24.70;;
32746;SDS011;19118;50.860;13.662;2023-11-22T08:16:57;51.63;;;25.25;;
32746;SDS011;19118;50.860;13.662;2023-11-22T08:21:57;55.53;;;27.20;;
32746;SDS011;19118;50.860;13.662;2023-11-22T08:27:00;56.90;;;26.65;;
32746;SDS011;19118;50.860;13.662;2023-11-22T08:32:00;65.40;;;30.67;;
32746;SDS011;19118;50.860;13.662;2023-11-22T08:37:02;62.92;;;30.08;;
32746;SDS011;19118;50.860;13.662;2023-11-22T08:42:03;60.88;;;25.65;;
32746;SDS011;19118;50.860;13.662;2023-11-22T08:47:09;63.10;;;27.30;;
32746;SDS011;19118;50.860;13.662;2023-11-22T08:52:09;54.13;;;23.17;;
32746;SDS011;19118;50.860;13.662;2023-11-22T08:57:10;48.05;;;22.27;;
32746;SDS011;19118;50.860;13.662;2023-11-22T09:02:10;40.88;;;20.83;;
32746;SDS011;19118;50.860;13.662;2023-11-22T09:07:12;41.25;;;20.88;;
32746;SDS011;19118;50.860;13.662;2023-11-22T09:12:14;42.92;;;20.30;;
32746;SDS011;19118;50.860;13.662;2023-11-22T09:17:14;45.97;;;19.92;;
32746;SDS011;19118;50.860;13.662;2023-11-22T09:22:15;42.78;;;21.25;;
32746;SDS011;19118;50.860;13.662;2023-11-22T09:27:15;42.63;;;20.40;;
32746;SDS011;19118;50.860;13.662;2023-11-22T09:32:18;42.30;;;20.08;;
32746;SDS011;19118;50.860;13.662;2023-11-22T09:37:18;51.65;;;22.42;;
32746;SDS011;19118;50.860;13.662;2023-11-22T09:42:19;39.33;;;19.67;;
32746;SDS011;19118;50.860;13.662;2023-11-22T09:47:20;41.08;;;19.85;;
32746;SDS011;19118;50.860;13.662;2023-11-22T09:52:22;45.67;;;19.15;;
32746;SDS011;19118;50.860;13.662;2023-11-22T09:57:25;47.78;;;21.77;;
32746;SDS011;19118;50.860;13.662;2023-11-22T10:02:29;51.78;;;22.50;;
32746;SDS011;19118;50.860;13.662;2023-11-22T10:07:30;38.55;;;19.58;;
32746;SDS011;19118;50.860;13.662;2023-11-22T10:12:31;35.58;;;17.17;;
32746;SDS011;19118;50.860;13.662;2023-11-22T10:17:31;43.35;;;17.83;;
32746;SDS011;19118;50.860;13.662;2023-11-22T10:22:34;38.97;;;19.63;;
32746;SDS011;19118;50.860;13.662;2023-11-22T10:27:45;40.15;;;20.75;;
32746;SDS011;19118;50.860;13.662;2023-11-22T10:32:46;39.38;;;18.00;;
32746;SDS011;19118;50.860;13.662;2023-11-22T10:37:47;39.42;;;18.52;;
32746;SDS011;19118;50.860;13.662;2023-11-22T10:42:47;42.10;;;20.50;;
32746;SDS011;19118;50.860;13.662;2023-11-22T10:47:52;56.35;;;25.75;;
32746;SDS011;19118;50.860;13.662;2023-11-22T10:52:56;35.03;;;17.45;;
32746;SDS011;19118;50.860;13.662;2023-11-22T10:58:01;60.08;;;27.02;;
32746;SDS011;19118;50.860;13.662;2023-11-22T11:03:05;40.20;;;18.80;;
32746;SDS011;19118;50.860;13.662;2023-11-22T11:08:11;46.90;;;20.52;;
32746;SDS011;19118;50.860;13.662;2023-11-22T11:13:13;42.83;;;20.70;;
32746;SDS011;19118;50.860;13.662;2023-11-22T11:18:14;42.97;;;21.05;;
32746;SDS011;19118;50.860;13.662;2023-11-22T11:23:16;39.33;;;20.42;;
32746;SDS011;19118;50.860;13.662;2023-11-22T11:28:20;58.85;;;24.80;;
32746;SDS011;19118;50.860;13.662;2023-11-22T11:33:33;42.10;;;19.33;;
32746;SDS011;19118;50.860;13.662;2023-11-22T11:38:34;39.40;;;18.50;;
32746;SDS011;19118;50.860;13.662;2023-11-22T11:43:45;40.50;;;19.30;;
32746;SDS011;19118;50.860;13.662;2023-11-22T11:48:48;44.53;;;18.17;;
32746;SDS011;19118;50.860;13.662;2023-11-22T11:53:52;37.03;;;18.25;;
32746;SDS011;19118;50.860;13.662;2023-11-22T11:58:55;43.38;;;18.23;;
32746;SDS011;19118;50.860;13.662;2023-11-22T12:04:02;37.78;;;15.57;;
32746;SDS011;19118;50.860;13.662;2023-11-22T12:09:03;34.33;;;14.52;;
32746;SDS011;19118;50.860;13.662;2023-11-22T12:14:03;29.65;;;14.13;;
32746;SDS011;19118;50.860;13.662;2023-11-22T12:19:04;31.48;;;14.43;;
32746;SDS011;19118;50.860;13.662;2023-11-22T12:24:05;31.80;;;16.25;;
32746;SDS011;19118;50.860;13.662;2023-11-22T12:29:07;29.35;;;13.68;;
32746;SDS011;19118;50.860;13.662;2023-11-22T12:34:09;36.53;;;16.88;;
32746;SDS011;19118;50.860;13.662;2023-11-22T12:39:10;30.10;;;14.82;;
32746;SDS011;19118;50.860;13.662;2023-11-22T12:44:17;26.77;;;13.35;;
32746;SDS011;19118;50.860;13.662;2023-11-22T12:49:18;27.15;;;13.93;;
32746;SDS011;19118;50.860;13.662;2023-11-22T12:54:19;43.60;;;19.95;;
32746;SDS011;19118;50.860;13.662;2023-11-22T12:59:21;41.95;;;17.38;;
32746;SDS011;19118;50.860;13.662;2023-11-22T13:04:21;26.55;;;13.82;;
32746;SDS011;19118;50.860;13.662;2023-11-22T13:09:22;28.08;;;13.70;;
32746;SDS011;19118;50.860;13.662;2023-11-22T13:14:22;24.25;;;11.85;;
32746;SDS011;19118;50.860;13.662;2023-11-22T13:19:23;27.50;;;12.52;;
32746;SDS011;19118;50.860;13.662;2023-11-22T13:24:24;29.73;;;12.18;;
32746;SDS011;19118;50.860;13.662;2023-11-22T13:29:25;26.65;;;13.18;;
32746;SDS011;19118;50.860;13.662;2023-11-22T13:34:26;23.35;;;11.25;;
32746;SDS011;19118;50.860;13.662;2023-11-22T13:39:26;35.45;;;18.13;;
32746;SDS011;19118;50.860;13.662;2023-11-22T13:44:26;24.15;;;12.10;;
32746;SDS011;19118;50.860;13.662;2023-11-22T13:49:27;26.20;;;13.02;;
32746;SDS011;19118;50.860;13.662;2023-11-22T13:54:27;28.27;;;13.38;;
32746;SDS011;19118;50.860;13.662;2023-11-22T13:59:27;25.45;;;11.93;;
32746;SDS011;19118;50.860;13.662;2023-11-22T14:04:28;36.58;;;16.58;;
32746;SDS011;19118;50.860;13.662;2023-11-22T14:09:28;29.25;;;12.70;;
32746;SDS011;19118;50.860;13.662;2023-11-22T14:14:29;37.97;;;14.93;;
32746;SDS011;19118;50.860;13.662;2023-11-22T14:19:30;31.27;;;13.70;;
32746;SDS011;19118;50.860;13.662;2023-11-22T14:24:30;29.77;;;14.70;;
32746;SDS011;19118;50.860;13.662;2023-11-22T14:29:33;31.83;;;13.45;;
32746;SDS011;19118;50.860;13.662;2023-11-22T14:34:34;26.13;;;12.10;;
32746;SDS011;19118;50.860;13.662;2023-11-22T14:39:34;27.70;;;14.10;;
32746;SDS011;19118;50.860;13.662;2023-11-22T14:44:34;31.38;;;13.35;;
32746;SDS011;19118;50.860;13.662;2023-11-22T14:49:35;35.00;;;13.98;;
32746;SDS011;19118;50.860;13.662;2023-11-22T14:54:36;33.65;;;14.85;;
32746;SDS011;19118;50.860;13.662;2023-11-22T14:59:36;33.60;;;14.82;;
32746;SDS011;19118;50.860;13.662;2023-11-22T15:04:37;36.55;;;17.38;;
32746;SDS011;19118;50.860;13.662;2023-11-22T15:09:38;31.98;;;15.98;;
32746;SDS011;19118;50.860;13.662;2023-11-22T15:14:38;32.33;;;16.50;;
32746;SDS011;19118;50.860;13.662;2023-11-22T15:19:39;37.20;;;17.83;;
32746;SDS011;19118;50.860;13.662;2023-11-22T15:24:42;36.67;;;18.50;;
32746;SDS011;19118;50.860;13.662;2023-11-22T15:29:42;34.92;;;18.13;;
32746;SDS011;19118;50.860;13.662;2023-11-22T15:34:42;29.98;;;16.88;;
32746;SDS011;19118;50.860;13.662;2023-11-22T15:39:43;34.88;;;17.50;;
32746;SDS011;19118;50.860;13.662;2023-11-22T15:44:43;34.75;;;17.50;;
32746;SDS011;19118;50.860;13.662;2023-11-22T15:49:43;41.83;;;20.58;;
32746;SDS011;19118;50.860;13.662;2023-11-22T15:54:44;32.88;;;18.13;;
32746;SDS011;19118;50.860;13.662;2023-11-22T15:59:44;34.40;;;17.70;;
32746;SDS011;19118;50.860;13.662;2023-11-22T16:04:44;31.60;;;16.45;;
32746;SDS011;19118;50.860;13.662;2023-11-22T16:09:46;37.03;;;17.40;;
32746;SDS011;19118;50.860;13.662;2023-11-22T16:14:47;35.17;;;17.05;;
32746;SDS011;19118;50.860;13.662;2023-11-22T16:19:48;36.47;;;17.35;;
32746;SDS011;19118;50.860;13.662;2023-11-22T16:24:49;29.52;;;15.98;;
32746;SDS011;19118;50.860;13.662;2023-11-22T16:29:49;33.05;;;17.25;;
32746;SDS011;19118;50.860;13.662;2023-11-22T16:34:50;33.00;;;15.75;;
32746;SDS011;19118;50.860;13.662;2023-11-22T16:39:51;32.78;;;17.27;;
32746;SDS011;19118;50.860;13.662;2023-11-22T16:44:51;41.65;;;20.05;;
32746;SDS011;19118;50.860;13.662;2023-11-22T16:49:51;48.47;;;22.40;;
32746;SDS011;19118;50.860;13.662;2023-11-22T16:54:52;40.22;;;19.60;;
32746;SDS011;19118;50.860;13.662;2023-11-22T16:59:52;35.05;;;17.90;;
32746;SDS011;19118;50.860;13.662;2023-11-22T17:04:53;34.50;;;18.27;;
32746;SDS011;19118;50.860;13.662;2023-11-22T17:09:56;35.03;;;16.83;;
32746;SDS011;19118;50.860;13.662;2023-11-22T17:14:57;30.38;;;17.00;;
32746;SDS011;19118;50.860;13.662;2023-11-22T17:19:57;34.95;;;17.30;;
32746;SDS011;19118;50.860;13.662;2023-11-22T17:24:59;35.85;;;16.83;;
32746;SDS011;19118;50.860;13.662;2023-11-22T17:30:00;37.08;;;16.92;;
32746;SDS011;19118;50.860;13.662;2023-11-22T17:35:02;33.85;;;17.23;;
32746;SDS011;19118;50.860;13.662;2023-11-22T17:40:03;36.47;;;18.02;;
32746;SDS011;19118;50.860;13.662;2023-11-22T17:45:05;34.45;;;17.75;;
32746;SDS011;19118;50.860;13.662;2023-11-22T17:50:05;34.92;;;17.65;;
32746;SDS011;19118;50.860;13.662;2023-11-22T17:55:07;35.42;;;17.55;;
32746;SDS011;19118;50.860;13.662;2023-11-22T18:00:09;44.55;;;19.58;;
32746;SDS011;19118;50.860;13.662;2023-11-22T18:05:12;39.40;;;18.35;;
32746;SDS011;19118;50.860;13.662;2023-11-22T18:10:13;43.38;;;19.55;;
32746;SDS011;19118;50.860;13.662;2023-11-22T18:15:14;43.95;;;19.52;;
32746;SDS011;19118;50.860;13.662;2023-11-22T18:20:15;38.78;;;18.48;;
32746;SDS011;19118;50.860;13.662;2023-11-22T18:25:15;42.20;;;19.95;;
32746;SDS011;19118;50.860;13.662;2023-11-22T18:30:15;40.70;;;19.35;;
32746;SDS011;19118;50.860;13.662;2023-11-22T18:35:16;48.70;;;19.95;;
32746;SDS011;19118;50.860;13.662;2023-11-22T18:40:16;43.40;;;20.60;;
32746;SDS011;19118;50.860;13.662;2023-11-22T18:45:17;39.92;;;19.42;;
32746;SDS011;19118;50.860;13.662;2023-11-22T18:50:17;43.17;;;19.10;;
32746;SDS011;19118;50.860;13.662;2023-11-22T18:55:18;46.00;;;21.17;;
32746;SDS011;19118;50.860;13.662;2023-11-22T19:00:19;43.22;;;20.27;;
32746;SDS011;19118;50.860;13.662;2023-11-22T19:05:19;52.58;;;22.70;;
32746;SDS011;19118;50.860;13.662;2023-11-22T19:10:21;47.95;;;21.15;;
32746;SDS011;19118;50.860;13.662;2023-11-22T19:15:21;46.05;;;21.85;;
32746;SDS011;19118;50.860;13.662;2023-11-22T19:20:22;47.78;;;22.13;;
32746;SDS011;19118;50.860;13.662;2023-11-22T19:25:26;45.88;;;22.38;;
32746;SDS011;19118;50.860;13.662;2023-11-22T19:30:26;43.90;;;21.48;;
32746;SDS011;19118;50.860;13.662;2023-11-22T19:35:27;43.90;;;22.42;;
32746;SDS011;19118;50.860;13.662;2023-11-22T19:40:29;49.35;;;23.15;;
32746;SDS011;19118;50.860;13.662;2023-11-22T19:45:30;44.67;;;22.02;;
32746;SDS011;19118;50.860;13.662;2023-11-22T19:50:30;48.55;;;22.42;;
32746;SDS011;19118;50.860;13.662;2023-11-22T19:55:31;53.63;;;23.77;;
32746;SDS011;19118;50.860;13.662;2023-11-22T20:00:31;54.30;;;24.60;;
32746;SDS011;19118;50.860;13.662;2023-11-22T20:05:33;52.03;;;22.73;;
32746;SDS011;19118;50.860;13.662;2023-11-22T20:10:34;47.47;;;23.23;;
32746;SDS011;19118;50.860;13.662;2023-11-22T20:15:34;54.30;;;23.63;;
32746;SDS011;19118;50.860;13.662;2023-11-22T20:20:38;49.55;;;23.25;;
32746;SDS011;19118;50.860;13.662;2023-11-22T20:25:38;55.95;;;22.13;;
32746;SDS011;19118;50.860;13.662;2023-11-22T20:30:39;40.63;;;19.35;;
32746;SDS011;19118;50.860;13.662;2023-11-22T20:35:40;43.15;;;20.75;;
32746;SDS011;19118;50.860;13.662;2023-11-22T20:40:40;37.53;;;20.98;;
32746;SDS011;19118;50.860;13.662;2023-11-22T20:45:41;43.28;;;21.27;;
32746;SDS011;19118;50.860;13.662;2023-11-22T20:50:41;41.22;;;20.40;;
32746;SDS011;19118;50.860;13.662;2023-11-22T20:55:42;38.80;;;18.05;;
32746;SDS011;19118;50.860;13.662;2023-11-22T21:00:42;33.28;;;16.55;;
32746;SDS011;19118;50.860;13.662;2023-11-22T21:05:42;33.80;;;17.20;;
32746;SDS011;19118;50.860;13.662;2023-11-22T21:10:44;33.40;;;17.05;;
32746;SDS011;19118;50.860;13.662;2023-11-22T21:15:44;38.20;;;18.40;;
32746;SDS011;19118;50.860;13.662;2023-11-22T21:20:46;30.58;;;16.85;;
32746;SDS011;19118;50.860;13.662;2023-11-22T21:25:47;32.10;;;16.90;;
32746;SDS011;19118;50.860;13.662;2023-11-22T21:30:50;27.35;;;12.95;;
32746;SDS011;19118;50.860;13.662;2023-11-22T21:35:50;23.73;;;11.95;;
32746;SDS011;19118;50.860;13.662;2023-11-22T21:40:51;24.40;;;11.65;;
32746;SDS011;19118;50.860;13.662;2023-11-22T21:45:51;27.67;;;13.40;;
32746;SDS011;19118;50.860;13.662;2023-11-22T21:50:52;23.27;;;12.32;;
32746;SDS011;19118;50.860;13.662;2023-11-22T21:55:52;22.30;;;12.10;;
32746;SDS011;19118;50.860;13.662;2023-11-22T22:00:53;21.58;;;12.27;;
32746;SDS011;19118;50.860;13.662;2023-11-22T22:05:54;26.08;;;13.13;;
32746;SDS011;19118;50.860;13.662;2023-11-22T22:10:54;20.73;;;11.60;;
32746;SDS011;19118;50.860;13.662;2023-11-22T22:15:55;23.63;;;12.20;;
32746;SDS011;19118;50.860;13.662;2023-11-22T22:20:56;19.20;;;10.88;;
32746;SDS011;19118;50.860;13.662;2023-11-22T22:25:56;19.50;;;11.17;;
32746;SDS011;19118;50.860;13.662;2023-11-22T22:30:56;21.13;;;10.02;;
32746;SDS011;19118;50.860;13.662;2023-11-22T22:35:57;20.15;;;9.52;;
32746;SDS011;19118;50.860;13.662;2023-11-22T22:40:58;18.75;;;9.52;;
32746;SDS011;19118;50.860;13.662;2023-11-22T22:45:58;16.98;;;9.45;;
32746;SDS011;19118;50.860;13.662;2023-11-22T22:51:01;19.35;;;9.38;;
32746;SDS011;19118;50.860;13.662;2023-11-22T22:56:02;16.27;;;8.70;;
32746;SDS011;19118;50.860;13.662;2023-11-22T23:01:03;16.73;;;8.80;;
32746;SDS011;19118;50.860;13.662;2023-11-22T23:06:04;16.23;;;8.65;;
32746;SDS011;19118;50.860;13.662;2023-11-22T23:11:05;15.02;;;7.63;;
32746;SDS011;19118;50.860;13.662;2023-11-22T23:16:05;16.35;;;7.57;;
32746;SDS011;19118;50.860;13.662;2023-11-22T23:21:07;15.75;;;8.15;;
32746;SDS011;19118;50.860;13.662;2023-11-22T23:26:08;12.80;;;6.75;;
32746;SDS011;19118;50.860;13.662;2023-11-22T23:31:09;13.27;;;7.18;;
32746;SDS011;19118;50.860;13.662;2023-11-22T23:36:10;10.43;;;5.60;;
32746;SDS011;19118;50.860;13.662;2023-11-22T23:41:11;11.88;;;6.78;;
32746;SDS011;19118;50.860;13.662;2023-11-22T23:46:12;13.20;;;6.90;;
32746;SDS011;19118;50.860;13.662;2023-11-22T23:51:12;12.75;;;6.65;;
32746;SDS011;19118;50.860;13.662;2023-11-22T23:56:13;10.25;;;5.82;;
